Time;durP1;ratioP1;P1;durP2;ratioP2;P2;SDS_P1;SDS_P2;PMS_P1;PMS_P2;Temp;Humidity;BMP_temperature;BMP_pressure;BME280_temperature;BME280_humidity;BME280_pressure;Samples;Min_cycle;Max_cycle;Signal;HPM_P1;HPM_P2
2022/11/27 00:00:16;;;;;;;5.35;2.12;;;;;;;1.37;100.00;101664.81;1741545;82;21008;-80
2022/11/27 00:03:00;;;;;;;4.40;2.35;;;;;;;1.37;100.00;101669.38;1740407;82;21036;-80
2022/11/27 00:05:57;;;;;;;3.10;2.05;;;;;;;1.35;100.00;101672.77;1752812;80;20973;-80
2022/11/27 00:08:44;;;;;;;4.95;2.50;;;;;;;1.34;100.00;101674.63;1753292;80;21036;-80
2022/11/27 00:11:30;;;;;;;3.37;1.80;;;;;;;1.34;100.00;101675.15;1742322;80;21000;-80
2022/11/27 00:14:15;;;;;;;3.87;1.90;;;;;;;1.32;100.00;101671.80;1731809;80;21012;-80
2022/11/27 00:17:00;;;;;;;4.05;1.82;;;;;;;1.28;100.00;101677.55;1742611;82;21086;-80
2022/11/27 00:19:45;;;;;;;4.22;1.82;;;;;;;1.27;100.00;101677.23;1742493;82;21024;-80
2022/11/27 00:22:30;;;;;;;4.28;1.98;;;;;;;1.27;100.00;101674.54;1744388;80;21033;-80
2022/11/27 00:25:15;;;;;;;4.20;2.10;;;;;;;1.25;100.00;101677.92;1701202;83;21473;-80
2022/11/27 00:28:00;;;;;;;3.83;1.70;;;;;;;1.24;100.00;101680.31;1714869;82;21008;-80
2022/11/27 00:30:44;;;;;;;5.53;2.40;;;;;;;1.22;100.00;101678.31;1731215;82;21067;-80
2022/11/27 00:33:29;;;;;;;5.12;2.58;;;;;;;1.22;100.00;101678.31;1736431;81;21055;-80
2022/11/27 00:36:14;;;;;;;1.87;1.65;;;;;;;1.21;100.00;101678.00;1733247;82;21041;-80
2022/11/27 00:38:59;;;;;;;3.72;2.12;;;;;;;1.22;100.00;101670.75;1755026;80;21503;-80
2022/11/27 00:41:44;;;;;;;4.62;2.22;;;;;;;1.22;100.00;101669.40;1690239;83;21009;-80
2022/11/27 00:44:29;;;;;;;4.72;2.10;;;;;;;1.23;100.00;101670.54;1697158;83;21019;-80
2022/11/27 00:47:14;;;;;;;3.22;1.52;;;;;;;1.24;100.00;101666.84;1691212;84;21035;-80
2022/11/27 00:49:59;;;;;;;3.98;2.25;;;;;;;1.24;100.00;101664.67;1705880;83;21019;-80
2022/11/27 00:52:43;;;;;;;4.10;1.95;;;;;;;1.23;100.00;101667.84;1742844;81;20996;-80
2022/11/27 00:55:28;;;;;;;4.28;2.20;;;;;;;1.26;100.00;101669.33;1742076;82;20984;-80
2022/11/27 00:58:12;;;;;;;3.95;2.20;;;;;;;1.24;100.00;101670.88;1760929;80;21443;-80
2022/11/27 01:01:01;;;;;;;3.87;2.10;;;;;;;1.23;100.00;101677.27;1767558;80;20968;-80
2022/11/27 01:03:46;;;;;;;4.87;2.60;;;;;;;1.22;100.00;101681.00;1702746;82;21527;-80
2022/11/27 01:06:31;;;;;;;4.20;2.05;;;;;;;1.24;100.00;101670.88;1742733;80;21068;-80
2022/11/27 01:09:15;;;;;;;8.03;3.25;;;;;;;1.24;100.00;101675.44;1743289;80;21474;-80
2022/11/27 01:12:00;;;;;;;8.08;2.67;;;;;;;1.25;100.00;101675.23;1679714;85;21044;-80
2022/11/27 01:14:45;;;;;;;4.67;2.42;;;;;;;1.25;100.00;101675.23;1706052;83;21610;-80
2022/11/27 01:17:29;;;;;;;3.58;2.33;;;;;;;1.26;100.00;101670.19;1741853;82;21014;-80
2022/11/27 01:20:14;;;;;;;6.92;2.83;;;;;;;1.24;100.00;101665.50;1742159;82;21792;-80
2022/11/27 01:22:59;;;;;;;5.40;2.75;;;;;;;1.26;100.00;101676.06;1743120;80;21658;-80
2022/11/27 01:25:44;;;;;;;5.65;2.15;;;;;;;1.25;100.00;101675.75;1680352;83;21040;-80
2022/11/27 01:28:29;;;;;;;5.85;3.02;;;;;;;1.25;100.00;101671.70;1707494;83;20998;-80
2022/11/27 01:31:18;;;;;;;5.95;3.20;;;;;;;1.24;100.00;101668.19;1742302;81;21106;-80
2022/11/27 01:34:06;;;;;;;3.67;2.20;;;;;;;1.24;100.00;101664.15;1742149;80;21043;-80
2022/11/27 01:36:51;;;;;;;5.37;2.72;;;;;;;1.22;100.00;101666.19;1742225;82;21012;-80
2022/11/27 01:39:35;;;;;;;6.00;2.52;;;;;;;1.19;100.00;101673.30;1738122;80;21012;-80
2022/11/27 01:42:20;;;;;;;5.15;2.98;;;;;;;1.17;100.00;101665.92;1744823;79;21058;-80
2022/11/27 01:45:07;;;;;;;6.55;2.52;;;;;;;1.17;100.00;101667.27;1759758;81;21039;-80
2022/11/27 01:47:55;;;;;;;5.85;3.10;;;;;;;1.17;100.00;101672.66;1746843;79;21009;-80
2022/11/27 01:50:40;;;;;;;6.17;3.15;;;;;;;1.19;100.00;101678.69;1743661;80;21053;-80
2022/11/27 01:53:25;;;;;;;5.35;2.45;;;;;;;1.19;100.00;101672.47;1744828;81;21512;-80
2022/11/27 01:56:09;;;;;;;5.30;2.83;;;;;;;1.17;100.00;101671.82;1750927;81;20995;-80
2022/11/27 01:58:55;;;;;;;5.87;2.98;;;;;;;1.19;100.00;101677.34;1761951;81;20988;-80
2022/11/27 02:01:39;;;;;;;5.47;3.12;;;;;;;1.18;100.00;101681.56;1763714;79;21030;-80
2022/11/27 02:04:24;;;;;;;5.58;3.27;;;;;;;1.15;100.00;101677.90;1760282;80;21547;-80
2022/11/27 02:07:09;;;;;;;5.83;3.27;;;;;;;1.18;100.00;101682.91;1760124;80;21000;-80
2022/11/27 02:09:55;;;;;;;6.58;2.87;;;;;;;1.21;100.00;101673.95;1714895;82;20997;-80
2022/11/27 02:12:55;;;;;;;5.85;3.70;;;;;;;1.19;100.00;101677.34;1715097;83;21469;-80
2022/11/27 02:15:57;;;;;;;7.37;3.45;;;;;;;1.18;100.00;101676.17;1715099;82;21021;-80
2022/11/27 02:18:50;;;;;;;6.15;2.70;;;;;;;1.14;100.00;101681.11;1724593;82;21525;-80
2022/11/27 02:21:57;;;;;;;;;;;;;;;1.11;100.00;101684.16;1742449;82;21477;-80
2022/11/27 02:25:16;;;;;;;6.35;3.15;;;;;;;1.11;100.00;101680.11;1739546;80;20163;-80
2022/11/27 02:28:51;;;;;;;4.65;2.50;;;;;;;1.08;100.00;101677.80;1714509;83;21022;-80
2022/11/27 02:32:02;;;;;;;5.92;2.87;;;;;;;0.99;100.00;101677.08;1714925;83;21005;-80
2022/11/27 02:35:04;;;;;;;6.22;2.92;;;;;;;0.96;100.00;101685.50;1739168;81;21032;-80
2022/11/27 02:38:01;;;;;;;4.62;2.45;;;;;;;0.93;100.00;101683.70;1722657;83;21041;-80
2022/11/27 02:41:03;;;;;;;4.97;3.20;;;;;;;0.87;100.00;101685.29;1759184;80;21004;-80
2022/11/27 02:43:48;;;;;;;5.03;2.42;;;;;;;0.85;100.00;101684.12;1787640;79;21015;-80
2022/11/27 02:46:33;;;;;;;6.83;2.83;;;;;;;0.81;100.00;101686.84;1797561;78;20993;-80
2022/11/27 02:49:17;;;;;;;4.20;2.67;;;;;;;0.75;100.00;101684.91;1797094;79;20976;-80
2022/11/27 02:52:02;;;;;;;8.05;3.20;;;;;;;0.73;100.00;101686.11;1787193;79;21024;-80
2022/11/27 02:54:47;;;;;;;5.95;3.47;;;;;;;0.71;100.00;101682.25;1773372;80;21044;-80
2022/11/27 02:57:32;;;;;;;4.53;2.83;;;;;;;0.68;100.00;101686.66;1773748;80;21032;-80
2022/11/27 03:00:18;;;;;;;4.78;2.95;;;;;;;0.67;100.00;101687.69;1772233;79;21437;-80
2022/11/27 03:03:05;;;;;;;5.95;2.77;;;;;;;0.69;100.00;101685.63;1768626;79;20989;-80
2022/11/27 03:05:52;;;;;;;4.95;3.00;;;;;;;0.68;100.00;101690.69;1762974;81;21024;-80
2022/11/27 03:08:53;;;;;;;3.37;2.40;;;;;;;0.64;100.00;101692.93;1713996;82;21535;-80
2022/11/27 03:11:39;;;;;;;6.00;3.75;;;;;;;0.68;100.00;101696.08;1774936;80;21073;-80
2022/11/27 03:14:24;;;;;;;4.53;2.83;;;;;;;0.63;100.00;101693.93;1791146;78;20985;-80
2022/11/27 03:17:35;;;;;;;6.60;3.00;;;;;;;0.61;100.00;101699.17;1797550;78;20964;-80
2022/11/27 03:20:26;;;;;;;6.67;3.62;;;;;;;0.58;100.00;101693.64;1737240;82;21155;-80
2022/11/27 03:23:11;;;;;;;4.78;2.70;;;;;;;0.56;100.00;101701.58;1795656;78;20976;-80
2022/11/27 03:25:56;;;;;;;5.37;2.72;;;;;;;0.54;100.00;101703.61;1797041;79;20993;-80
2022/11/27 03:28:42;;;;;;;4.90;2.58;;;;;;;0.54;100.00;101699.57;1797307;79;21004;-80
2022/11/27 03:31:27;;;;;;;5.47;2.83;;;;;;;0.56;100.00;101701.58;1776270;79;21012;-80
2022/11/27 03:34:12;;;;;;;7.45;3.17;;;;;;;0.48;100.00;101697.63;1707726;82;21062;-80
2022/11/27 03:36:56;;;;;;;12.50;5.75;;;;;;;0.45;100.00;101696.13;1776120;80;21035;-80
2022/11/27 03:39:41;;;;;;;11.45;5.42;;;;;;;0.46;100.00;101695.62;1782710;79;20976;-80
2022/11/27 03:42:58;;;;;;;10.82;5.47;;;;;;;0.41;100.00;101696.16;1797537;79;20957;-80
2022/11/27 03:45:59;;;;;;;8.93;4.67;;;;;;;0.39;100.00;101692.30;1733585;82;20984;-80
2022/11/27 03:49:01;;;;;;;6.97;3.17;;;;;;;0.37;100.00;101694.36;1727415;81;21034;-80
2022/11/27 03:51:54;;;;;;;5.42;3.30;;;;;;;0.36;100.00;101696.70;1774731;80;21028;-80
2022/11/27 03:55:11;;;;;;;7.03;3.75;;;;;;;0.33;100.00;101701.11;1773248;80;21008;-80
2022/11/27 03:58:07;;;;;;;9.08;4.45;;;;;;;0.32;100.00;101695.41;1769270;79;20955;-80
2022/11/27 04:00:53;;;;;;;6.37;3.70;;;;;;;0.32;100.00;101695.41;1800202;79;21013;-80
2022/11/27 04:03:37;;;;;;;5.55;2.92;;;;;;;0.32;100.00;101699.45;1779391;78;21056;-80
2022/11/27 04:06:22;;;;;;;7.67;4.03;;;;;;;0.33;100.00;101701.63;1764161;80;21430;-80
2022/11/27 04:09:07;;;;;;;6.10;3.05;;;;;;;0.34;100.00;101696.56;1769537;80;20977;-80
2022/11/27 04:11:52;;;;;;;7.72;3.95;;;;;;;0.33;100.00;101701.11;1775357;79;21047;-80
2022/11/27 04:14:38;;;;;;;5.00;2.98;;;;;;;0.34;100.00;101698.73;1764525;80;21067;-80
2022/11/27 04:17:25;;;;;;;4.67;2.75;;;;;;;0.34;100.00;101700.08;1764588;80;20957;-80
2022/11/27 04:20:14;;;;;;;5.22;2.55;;;;;;;0.32;100.00;101699.45;1788767;79;21407;-80
2022/11/27 04:22:59;;;;;;;7.37;4.00;;;;;;;0.32;100.00;101699.45;1778657;79;21027;-80
2022/11/27 04:25:44;;;;;;;7.65;3.30;;;;;;;0.32;100.00;101706.17;1797459;79;21043;-80
2022/11/27 04:28:29;;;;;;;5.28;3.27;;;;;;;0.32;100.00;101704.83;1718103;81;21005;-80
2022/11/27 04:31:14;;;;;;;23.65;8.15;;;;;;;0.30;100.00;101708.20;1774633;80;21471;-79
2022/11/27 04:33:58;;;;;;;20.50;8.68;;;;;;;0.30;100.00;101705.51;1774052;80;21047;-79
2022/11/27 04:36:45;;;;;;;14.93;6.87;;;;;;;0.29;100.00;101705.16;1783944;79;20988;-79
2022/11/27 04:39:29;;;;;;;20.05;8.88;;;;;;;0.28;100.00;101704.84;1754998;80;20997;-79
2022/11/27 04:42:14;;;;;;;14.50;6.55;;;;;;;0.27;100.00;101701.81;1788804;79;21015;-80
2022/11/27 04:44:59;;;;;;;9.88;5.45;;;;;;;0.29;100.00;101707.02;1780806;79;21433;-79
2022/11/27 04:47:44;;;;;;;6.47;3.90;;;;;;;0.28;100.00;101702.67;1776423;80;20987;-80
2022/11/27 04:50:29;;;;;;;9.13;5.67;;;;;;;0.28;100.00;101707.53;1784301;79;21043;-79
2022/11/27 04:53:14;;;;;;;9.85;5.08;;;;;;;0.27;100.00;101707.19;1746174;80;21021;-80
2022/11/27 04:55:59;;;;;;;5.05;3.77;;;;;;;0.27;100.00;101705.02;1770800;79;20982;-80
2022/11/27 04:58:45;;;;;;;8.53;5.10;;;;;;;0.32;100.00;101707.52;1786489;79;21007;-79
2022/11/27 05:01:30;;;;;;;8.85;5.15;;;;;;;0.33;100.00;101702.45;1786543;78;21497;-80
2022/11/27 05:04:14;;;;;;;5.42;4.00;;;;;;;0.32;100.00;101706.17;1774882;80;21445;-80
2022/11/27 05:06:59;;;;;;;5.53;3.08;;;;;;;0.29;100.00;101709.20;1768026;79;21020;-80
2022/11/27 05:09:44;;;;;;;5.03;2.98;;;;;;;0.28;100.00;101714.26;1764114;79;21177;-79
2022/11/27 05:12:29;;;;;;;5.60;3.45;;;;;;;0.29;100.00;101718.61;1745083;82;21420;-80
2022/11/27 05:15:14;;;;;;;6.25;2.92;;;;;;;0.30;100.00;101712.23;1762327;79;21495;-80
2022/11/27 05:17:59;;;;;;;4.05;2.25;;;;;;;0.29;100.00;101714.57;1782533;79;20988;-80
2022/11/27 05:20:44;;;;;;;6.50;2.30;;;;;;;0.30;100.00;101721.64;1784174;79;21019;-80
2022/11/27 05:23:29;;;;;;;5.97;2.85;;;;;;;0.31;100.00;101723.30;1711046;83;20989;-80
2022/11/27 05:26:14;;;;;;;6.10;3.50;;;;;;;0.32;100.00;101722.78;1762551;79;21029;-80
2022/11/27 05:28:59;;;;;;;9.80;4.65;;;;;;;0.29;100.00;101723.98;1764275;80;20971;-80
2022/11/27 05:31:44;;;;;;;9.85;5.35;;;;;;;0.31;100.00;101730.02;1767548;79;20986;-80
2022/11/27 05:34:29;;;;;;;7.30;3.62;;;;;;;0.29;100.00;101727.19;1710229;82;21509;-79
2022/11/27 05:37:14;;;;;;;9.60;4.65;;;;;;;0.29;100.00;101735.25;1708780;83;21063;-80
2022/11/27 05:39:58;;;;;;;9.20;3.98;;;;;;;0.30;100.00;101731.56;1733705;82;21041;-80
2022/11/27 05:42:42;;;;;;;10.15;4.40;;;;;;;0.30;100.00;101729.70;1738132;82;20997;-80
2022/11/27 05:45:27;;;;;;;10.80;5.42;;;;;;;0.29;100.00;101730.70;1775068;80;21052;-79
2022/11/27 05:48:12;;;;;;;20.10;6.55;;;;;;;0.29;100.00;101733.91;1776142;79;21402;-80
2022/11/27 05:50:57;;;;;;;26.48;10.93;;;;;;;0.30;100.00;101739.12;1763665;79;20994;-80
2022/11/27 05:53:43;;;;;;;20.90;6.78;;;;;;;0.27;100.00;101741.31;1773823;80;20964;-80
2022/11/27 05:56:27;;;;;;;6.03;3.30;;;;;;;0.25;100.00;101740.17;1772398;80;20990;-80
2022/11/27 05:59:13;;;;;;;6.72;3.45;;;;;;;0.24;100.00;101743.85;1774131;80;20995;-80
2022/11/27 06:01:58;;;;;;;6.33;3.40;;;;;;;0.23;100.00;101740.02;1773606;80;21030;-80
2022/11/27 06:04:42;;;;;;;6.20;4.08;;;;;;;0.20;100.00;101742.56;1776219;80;21040;-80
2022/11/27 06:07:27;;;;;;;7.92;3.80;;;;;;;0.20;100.00;101746.08;1775170;80;21450;-80
2022/11/27 06:10:12;;;;;;;4.20;2.47;;;;;;;0.20;100.00;101750.62;1780778;79;20967;-80
2022/11/27 06:12:57;;;;;;;7.55;3.90;;;;;;;0.17;100.00;101753.65;1737217;82;21028;-80
2022/11/27 06:15:42;;;;;;;4.22;2.80;;;;;;;0.18;100.00;101759.37;1702021;81;21003;-80
2022/11/27 06:18:26;;;;;;;4.22;2.52;;;;;;;0.17;100.00;101761.71;1774830;80;20984;-80
2022/11/27 06:21:13;;;;;;;4.83;2.72;;;;;;;0.16;100.00;101760.05;1785671;79;21841;-80
2022/11/27 06:23:58;;;;;;;10.10;6.37;;;;;;;0.15;100.00;101765.94;1786546;79;21035;-80
2022/11/27 06:26:44;;;;;;;8.23;4.40;;;;;;;0.15;100.00;101757.05;1773703;80;21011;-80
2022/11/27 06:29:29;;;;;;;7.78;4.53;;;;;;;0.14;100.00;101760.22;1772652;80;21006;-80
2022/11/27 06:32:13;;;;;;;6.25;3.47;;;;;;;0.12;100.00;101758.21;1775562;79;20983;-79
2022/11/27 06:34:58;;;;;;;5.08;3.52;;;;;;;0.14;100.00;101763.42;1756493;79;21847;-79
2022/11/27 06:37:43;;;;;;;4.22;3.27;;;;;;;0.13;100.00;101763.11;1773062;80;20988;-79
2022/11/27 06:40:28;;;;;;;2.80;1.92;;;;;;;0.13;100.00;101760.42;1773283;80;21075;-79
2022/11/27 06:43:12;;;;;;;5.72;3.80;;;;;;;0.12;100.00;101759.55;1771616;80;20981;-79
2022/11/27 06:45:58;;;;;;;8.45;5.42;;;;;;;0.11;100.00;101760.58;1776243;80;21046;-79
2022/11/27 06:48:44;;;;;;;3.50;2.72;;;;;;;0.11;100.00;101762.44;1770250;80;21004;-79
2022/11/27 06:51:31;;;;;;;4.00;2.40;;;;;;;0.09;100.00;101760.44;1791615;79;21072;-79
2022/11/27 06:54:15;;;;;;;4.50;2.80;;;;;;;0.11;100.00;101757.89;1712059;82;21042;-79
2022/11/27 06:57:00;;;;;;;3.87;2.35;;;;;;;0.13;100.00;101760.42;1712423;82;21488;-79
2022/11/27 06:59:45;;;;;;;7.80;4.37;;;;;;;0.13;100.00;101747.80;1704705;82;21571;-79
2022/11/27 07:02:31;;;;;;;11.12;4.92;;;;;;;0.15;100.00;101754.36;1727162;82;21026;-79
2022/11/27 07:05:15;;;;;;;7.83;4.03;;;;;;;0.15;100.00;101754.36;1764802;80;20967;-79
2022/11/27 07:08:00;;;;;;;5.28;3.27;;;;;;;0.17;100.00;101758.55;1726569;82;21003;-79
2022/11/27 07:10:45;;;;;;;4.70;2.58;;;;;;;0.20;100.00;101758.69;1694700;83;21030;-79
2022/11/27 07:13:30;;;;;;;3.22;2.30;;;;;;;0.19;100.00;101762.37;1722829;81;21021;-79
2022/11/27 07:16:15;;;;;;;2.67;1.85;;;;;;;0.21;100.00;101763.04;1734983;82;21402;-79
2022/11/27 07:19:03;;;;;;;3.20;2.37;;;;;;;0.23;100.00;101763.70;1808531;78;21540;-79
2022/11/27 07:21:48;;;;;;;6.42;3.90;;;;;;;0.24;100.00;101761.84;1786006;79;21027;-79
2022/11/27 07:24:33;;;;;;;5.45;3.33;;;;;;;0.24;100.00;101757.30;1736895;81;21036;-79
2022/11/27 07:27:18;;;;;;;6.87;3.67;;;;;;;0.24;100.00;101757.30;1804083;79;20984;-79
2022/11/27 07:30:03;;;;;;;8.38;6.15;;;;;;;0.25;100.00;101760.33;1804782;79;20981;-79
2022/11/27 07:32:49;;;;;;;7.35;4.47;;;;;;;0.27;100.00;101763.65;1734167;82;21478;-79
2022/11/27 07:35:33;;;;;;;4.60;2.87;;;;;;;0.31;100.00;101760.11;1725825;81;21116;-79
2022/11/27 07:38:18;;;;;;;11.78;7.17;;;;;;;0.30;100.00;101766.00;1726196;82;21036;-79
2022/11/27 07:41:04;;;;;;;22.07;12.15;;;;;;;0.31;100.00;101766.32;1714711;82;20991;-79
2022/11/27 07:43:48;;;;;;;8.15;4.95;;;;;;;0.30;100.00;101755.25;1713765;83;21489;-79
2022/11/27 07:46:32;;;;;;;4.80;2.90;;;;;;;0.33;100.00;101762.95;1727500;81;20988;-79
2022/11/27 07:49:17;;;;;;;10.15;4.67;;;;;;;0.33;100.00;101760.78;1791166;78;21018;-79
2022/11/27 07:52:03;;;;;;;12.55;4.12;;;;;;;0.33;100.00;101764.30;1712095;83;21466;-79
2022/11/27 07:54:47;;;;;;;13.60;5.72;;;;;;;0.35;100.00;101763.61;1708611;83;21069;-79
2022/11/27 07:57:33;;;;;;;30.45;13.50;;;;;;;0.38;100.00;101762.42;1697510;84;21422;-80
2022/11/27 08:00:19;;;;;;;9.78;4.85;;;;;;;0.35;100.00;101764.95;1778703;78;21723;-80
2022/11/27 08:03:04;;;;;;;13.00;6.17;;;;;;;0.37;100.00;101768.30;1781021;80;21526;-80
2022/11/27 08:05:49;;;;;;;12.82;4.97;;;;;;;0.38;100.00;101764.59;1743688;82;21025;-80
2022/11/27 08:08:33;;;;;;;7.17;4.15;;;;;;;0.38;100.00;101761.91;1719852;82;21030;-80
2022/11/27 08:11:34;;;;;;;6.30;3.70;;;;;;;0.38;100.00;101760.55;1741981;82;21040;-80
2022/11/27 08:14:15;;;;;;;2.70;2.05;;;;;;;0.39;100.00;101766.25;1778817;80;20971;-80
2022/11/27 08:17:00;;;;;;;2.58;1.80;;;;;;;0.43;100.00;101769.43;1738796;82;21037;-80
2022/11/27 08:19:44;;;;;;;3.47;2.12;;;;;;;0.46;100.00;101765.55;1749904;81;21094;-80
2022/11/27 08:22:29;;;;;;;12.15;5.60;;;;;;;0.48;100.00;101771.59;1775472;79;21609;-80
2022/11/27 08:25:14;;;;;;;20.40;9.30;;;;;;;0.48;100.00;101768.89;1778009;80;21039;-80
2022/11/27 08:27:59;;;;;;;23.90;11.25;;;;;;;0.51;100.00;101763.98;1737250;81;20993;-80
2022/11/27 08:30:43;;;;;;;3.58;2.75;;;;;;;0.52;100.00;101762.98;1777706;80;20903;-80
2022/11/27 08:33:28;;;;;;;6.53;4.10;;;;;;;0.54;100.00;101765.47;1778060;80;21004;-80
2022/11/27 08:36:13;;;;;;;4.17;2.92;;;;;;;0.55;100.00;101767.16;1776148;78;21011;-80
2022/11/27 08:38:59;;;;;;;9.78;4.80;;;;;;;0.54;100.00;101768.16;1712190;83;20994;-80
2022/11/27 08:41:44;;;;;;;6.28;3.22;;;;;;;0.52;100.00;101771.53;1777858;78;20998;-80
2022/11/27 08:44:30;;;;;;;23.90;10.53;;;;;;;0.51;100.00;101774.73;1712371;83;21777;-80
2022/11/27 08:47:15;;;;;;;43.00;23.65;;;;;;;0.54;100.00;101771.67;1668079;83;21487;-80
2022/11/27 08:50:00;;;;;;;16.85;10.05;;;;;;;0.56;100.00;101774.20;1649539;85;21527;-81
2022/11/27 08:52:45;;;;;;;18.70;10.45;;;;;;;0.57;100.00;101771.82;1714718;82;21027;-82
2022/11/27 08:55:30;;;;;;;12.40;6.67;;;;;;;0.53;100.00;101770.02;1717995;82;21054;-81
2022/11/27 08:58:15;;;;;;;15.08;8.73;;;;;;;0.56;100.00;101772.34;1701907;82;21008;-81
2022/11/27 09:01:10;;;;;;;13.00;7.72;;;;;;;0.59;100.00;101776.03;1703408;82;21065;-81
2022/11/27 09:03:55;;;;;;;11.03;7.22;;;;;;;0.66;100.00;101780.16;1718539;82;21006;-81
2022/11/27 09:06:40;;;;;;;44.05;26.33;;;;;;;0.70;100.00;101781.48;1676410;83;21036;-80
2022/11/27 09:09:26;;;;;;;17.60;10.38;;;;;;;0.76;100.00;101775.87;1704313;82;20978;-81
2022/11/27 09:12:11;;;;;;;8.50;4.70;;;;;;;0.84;100.00;101772.61;1702016;82;21047;-81
2022/11/27 09:14:57;;;;;;;6.95;5.40;;;;;;;0.88;100.00;101773.58;1719449;82;21003;-80
2022/11/27 09:17:42;;;;;;;11.35;6.58;;;;;;;0.94;100.00;101776.88;1710508;82;21077;-80
2022/11/27 09:20:27;;;;;;;4.45;2.77;;;;;;;0.99;100.00;101776.67;1727595;81;21003;-80
2022/11/27 09:23:12;;;;;;;5.22;3.55;;;;;;;1.03;100.00;101773.92;1704680;82;21030;-80
2022/11/27 09:26:03;;;;;;;7.05;4.10;;;;;;;1.08;100.00;101774.72;1716127;80;20982;-79
2022/11/27 09:28:48;;;;;;;2.75;2.05;;;;;;;1.12;100.00;101777.38;1723261;82;21006;-80
2022/11/27 09:31:32;;;;;;;7.35;3.67;;;;;;;1.09;100.00;101775.06;1710252;82;21003;-80
2022/11/27 09:34:17;;;;;;;4.15;2.87;;;;;;;1.10;100.00;101777.23;1717606;82;21501;-80
2022/11/27 09:37:03;;;;;;;3.02;1.92;;;;;;;1.17;100.00;101777.66;1726649;82;21050;-80
2022/11/27 09:39:48;;;;;;;115.75;41.50;;;;;;;1.14;100.00;101779.38;1673821;83;21582;-81
2022/11/27 09:42:40;;;;;;;4.10;3.35;;;;;;;1.10;100.00;101778.58;1661116;84;21087;-81
2022/11/27 09:45:24;;;;;;;3.27;2.45;;;;;;;1.04;100.00;101767.53;1663206;82;21003;-80
2022/11/27 09:48:14;;;;;;;5.12;2.80;;;;;;;1.00;100.00;101769.42;1748675;79;21082;-80
2022/11/27 09:51:00;;;;;;;4.80;2.42;;;;;;;0.98;100.00;101768.77;1776657;79;21126;-80
2022/11/27 09:53:50;;;;;;;8.65;4.55;;;;;;;0.99;100.00;101769.09;1740297;79;20964;-80
2022/11/27 09:56:35;;;;;;;8.00;4.58;;;;;;;0.98;100.00;101779.02;1745838;79;20984;-80
2022/11/27 09:59:37;;;;;;;3.22;2.55;;;;;;;0.99;100.00;101771.77;1750221;79;21033;-80
2022/11/27 10:02:28;;;;;;;17.43;4.93;;;;;;;0.99;100.00;101774.47;1758678;79;20984;-80
2022/11/27 10:05:25;;;;;;;8.80;6.30;;;;;;;1.00;100.00;101766.22;1757015;79;21542;-81
2022/11/27 10:08:45;;;;;;;5.50;4.45;;;;;;;1.00;100.00;101764.05;1786531;79;21054;-81
2022/11/27 10:11:47;;;;;;;3.50;2.62;;;;;;;1.02;100.00;101767.39;1761891;79;21472;-80
2022/11/27 10:14:59;;;;;;;12.28;7.58;;;;;;;1.04;100.00;101773.44;1773005;79;21014;-80
2022/11/27 10:17:51;;;;;;;7.60;4.60;;;;;;;1.06;100.00;101769.54;1765181;79;20995;-80
2022/11/27 10:20:48;;;;;;;3.50;2.85;;;;;;;1.10;100.00;101761.91;1767354;79;21013;-80
2022/11/27 10:24:17;;;;;;;11.12;5.92;;;;;;;1.11;100.00;101762.23;1757008;79;20993;-80
2022/11/27 10:27:09;;;;;;;4.05;2.42;;;;;;;1.11;100.00;101758.19;1759090;81;21003;-80
2022/11/27 10:29:55;;;;;;;;;;;;;;;1.18;100.00;101761.81;1732446;81;21365;-80
2022/11/27 10:32:40;;;;;;;4.87;2.90;;;;;;;1.20;100.00;101755.74;1714609;82;20189;-80
2022/11/27 10:35:27;;;;;;;5.10;2.50;;;;;;;1.26;100.00;101756.84;1726081;82;21029;-80
2022/11/27 10:38:19;;;;;;;5.90;3.47;;;;;;;1.28;100.00;101752.95;1733974;82;20999;-80
2022/11/27 10:41:24;;;;;;;4.87;3.37;;;;;;;1.32;100.00;101755.29;1767444;79;21506;-80
2022/11/27 10:44:30;;;;;;;4.25;2.67;;;;;;;1.36;100.00;101749.84;1762961;79;21395;-80
2022/11/27 10:47:15;;;;;;;1.95;1.72;;;;;;;1.35;100.00;101748.17;1765999;79;21058;-80
2022/11/27 10:50:00;;;;;;;12.68;8.13;;;;;;;1.34;100.00;101745.17;1766931;79;21006;-80
2022/11/27 10:52:59;;;;;;;3.67;2.80;;;;;;;1.35;100.00;101749.52;1781084;79;21002;-80
2022/11/27 10:56:14;;;;;;;6.53;2.90;;;;;;;1.30;100.00;101755.46;1787341;79;21497;-80
2022/11/27 10:59:11;;;;;;;6.65;4.50;;;;;;;1.28;100.00;101750.25;1763472;79;21015;-80
2022/11/27 11:01:57;;;;;;;8.18;4.08;;;;;;;1.27;100.00;101746.42;1774761;79;21069;-80
2022/11/27 11:04:42;;;;;;;6.75;3.00;;;;;;;1.29;100.00;101754.64;1776172;79;20970;-80
2022/11/27 11:07:28;;;;;;;3.40;2.35;;;;;;;1.31;100.00;101754.46;1783718;79;21058;-80
2022/11/27 11:10:24;;;;;;;2.65;1.47;;;;;;;1.29;100.00;101750.59;1764628;79;21952;-80
2022/11/27 11:13:20;;;;;;;3.70;2.30;;;;;;;1.33;100.00;101753.73;1779625;79;21472;-80
2022/11/27 11:16:09;;;;;;;1.22;0.93;;;;;;;1.26;100.00;101742.89;1756824;79;21070;-80
2022/11/27 11:18:55;;;;;;;2.72;1.50;;;;;;;1.21;100.00;101742.63;1759756;79;21512;-80
2022/11/27 11:21:43;;;;;;;1.62;1.40;;;;;;;1.16;100.00;101740.97;1783890;78;21055;-80
2022/11/27 11:24:30;;;;;;;2.15;1.20;;;;;;;1.16;100.00;101743.66;1784142;79;21030;-80
2022/11/27 11:27:25;;;;;;;4.37;1.98;;;;;;;1.13;100.00;101741.34;1771814;79;20966;-80
2022/11/27 11:30:24;;;;;;;5.05;1.45;;;;;;;1.08;100.00;101746.45;1779090;78;21016;-80
2022/11/27 11:33:10;;;;;;;3.65;1.35;;;;;;;1.08;100.00;101739.72;1777664;79;21050;-80
2022/11/27 11:36:00;;;;;;;1.17;0.98;;;;;;;1.07;100.00;101740.75;1771014;79;20943;-80
2022/11/27 11:38:45;;;;;;;2.10;1.47;;;;;;;1.05;100.00;101741.45;1791165;79;21009;-80
2022/11/27 11:41:39;;;;;;;5.35;2.72;;;;;;;1.05;100.00;101742.27;1785697;79;21022;-80
2022/11/27 11:44:37;;;;;;;2.47;1.82;;;;;;;1.06;100.00;101737.23;1769132;79;21097;-79
2022/11/27 11:47:24;;;;;;;2.58;1.40;;;;;;;1.09;100.00;101742.75;1741137;80;21025;-80
2022/11/27 11:50:13;;;;;;;1.80;1.37;;;;;;;1.10;100.00;101745.77;1743036;82;21080;-79
2022/11/27 11:53:08;;;;;;;2.47;2.00;;;;;;;1.10;100.00;101739.03;1662951;83;21013;-80
2022/11/27 11:56:17;;;;;;;5.62;2.37;;;;;;;1.10;100.00;101746.28;1677463;83;20997;-80
2022/11/27 11:59:23;;;;;;;13.28;4.78;;;;;;;1.10;100.00;101747.11;1744018;81;21011;-80
2022/11/27 12:02:45;;;;;;;3.10;2.27;;;;;;;1.14;100.00;101750.25;1744961;80;21049;-80
2022/11/27 12:06:00;;;;;;;2.37;1.50;;;;;;;1.12;100.00;101745.07;1733746;80;20993;-80
2022/11/27 12:09:05;;;;;;;2.15;1.30;;;;;;;1.12;100.00;101744.24;1742156;79;21029;-79
2022/11/27 12:11:59;;;;;;;1.27;1.17;;;;;;;1.10;100.00;101744.94;1744436;80;21029;-79
2022/11/27 12:15:15;;;;;;;1.87;1.32;;;;;;;1.12;100.00;101747.77;1739272;79;21061;-79
2022/11/27 12:18:20;;;;;;;2.30;1.87;;;;;;;1.14;100.00;101747.08;1726988;81;21000;-80
2022/11/27 12:21:16;;;;;;;2.42;1.55;;;;;;;1.13;100.00;101748.08;1667520;83;21086;-80
2022/11/27 12:24:24;;;;;;;2.50;1.57;;;;;;;1.12;100.00;101749.63;1703763;81;21010;-80
2022/11/27 12:27:26;;;;;;;2.02;1.10;;;;;;;1.15;100.00;101744.70;1742823;81;21033;-80
2022/11/27 12:30:17;;;;;;;2.05;1.47;;;;;;;1.21;100.00;101751.19;1637677;82;21111;-80
2022/11/27 12:33:30;;;;;;;3.92;2.10;;;;;;;1.25;100.00;101742.55;1675767;83;21537;-80
2022/11/27 12:36:26;;;;;;;3.67;1.92;;;;;;;1.26;100.00;101752.80;1745920;80;21540;-81
2022/11/27 12:39:51;;;;;;;1.82;1.22;;;;;;;1.25;100.00;101751.15;1743570;79;21407;-78
2022/11/27 12:43:03;;;;;;;1.92;1.52;;;;;;;1.20;100.00;101746.84;1743543;82;21026;-79
2022/11/27 12:46:00;;;;;;;3.22;1.30;;;;;;;1.22;100.00;101760.95;1650717;84;21026;-79
2022/11/27 12:48:49;;;;;;;3.05;2.12;;;;;;;1.21;100.00;101757.43;1756552;81;21413;-79
2022/11/27 12:51:47;;;;;;;20.00;7.22;;;;;;;1.21;100.00;101760.61;1739230;80;20978;-79
2022/11/27 12:54:43;;;;;;;8.65;4.40;;;;;;;1.19;100.00;101762.16;1732134;80;21001;-78
2022/11/27 12:57:53;;;;;;;2.87;2.22;;;;;;;1.17;100.00;101769.58;1705868;83;20987;-78
2022/11/27 13:00:39;;;;;;;1.55;1.30;;;;;;;1.15;100.00;101766.23;1746308;80;21006;-79
2022/11/27 13:03:31;;;;;;;2.95;1.45;;;;;;;1.16;100.00;101764.37;1668939;83;21058;-79
2022/11/27 13:06:18;;;;;;;2.00;1.30;;;;;;;1.17;100.00;101770.92;1738280;80;20986;-79